createdAt,value
2017-12-17T00:00:05.462Z,19.9
2017-12-17T00:02:05.271Z,19.9
2017-12-17T00:04:05.099Z,19.9
2017-12-17T00:06:08.021Z,19.9
2017-12-17T00:08:04.794Z,19.9
2017-12-17T00:10:05.594Z,19.9
2017-12-17T00:12:05.463Z,19.9
2017-12-17T00:14:05.218Z,19.9
2017-12-17T00:16:07.508Z,19.9
2017-12-17T00:18:05.540Z,19.9
2017-12-17T00:20:04.831Z,19.9
2017-12-17T00:22:07.240Z,19.9
2017-12-17T00:24:05.013Z,19.8
2017-12-17T00:26:09.847Z,19.9
2017-12-17T00:28:04.899Z,19.9
2017-12-17T00:30:04.661Z,19.9
2017-12-17T00:32:08.049Z,19.8
2017-12-17T00:34:04.847Z,19.8
2017-12-17T00:36:05.631Z,19.9
2017-12-17T00:38:05.451Z,19.9
2017-12-17T00:40:10.535Z,19.8
2017-12-17T00:42:05.336Z,19.9
2017-12-17T00:44:10.322Z,19.8
2017-12-17T00:46:07.648Z,19.9
2017-12-17T00:48:05.487Z,19.8
2017-12-17T00:50:10.322Z,19.8
2017-12-17T00:52:05.251Z,19.8
2017-12-17T00:54:12.700Z,19.8
2017-12-17T00:56:05.450Z,19.8
2017-12-17T00:58:05.346Z,19.8
2017-12-17T01:00:05.675Z,19.8
2017-12-17T01:02:05.533Z,19.8
2017-12-17T01:04:05.314Z,19.8
2017-12-17T01:06:04.749Z,19.8
2017-12-17T01:08:08.050Z,19.8
2017-12-17T01:10:04.844Z,19.8
2017-12-17T01:12:04.673Z,19.8
2017-12-17T01:14:05.502Z,19.8
2017-12-17T01:16:07.836Z,19.8
2017-12-17T01:18:04.887Z,19.8
2017-12-17T01:20:04.736Z,19.8
2017-12-17T01:22:08.031Z,19.8
2017-12-17T01:24:04.936Z,19.8
2017-12-17T01:26:04.786Z,19.8
2017-12-17T01:28:05.615Z,19.8
2017-12-17T01:30:07.449Z,19.8
2017-12-17T01:32:05.198Z,19.8
2017-12-17T01:34:07.486Z,19.8
2017-12-17T01:36:05.328Z,19.8
2017-12-17T01:38:05.088Z,19.8
2017-12-17T01:40:04.876Z,19.8
2017-12-17T01:42:05.776Z,19.7
2017-12-17T01:44:12.699Z,19.8
2017-12-17T01:46:05.504Z,19.8
2017-12-17T01:48:07.876Z,19.8
2017-12-17T01:50:07.757Z,19.8
2017-12-17T01:52:08.044Z,19.8
2017-12-17T01:54:04.827Z,19.8
2017-12-17T01:56:05.623Z,19.8
2017-12-17T01:58:07.931Z,19.7
2017-12-17T02:00:04.741Z,19.7
2017-12-17T02:02:05.550Z,19.8
2017-12-17T02:04:05.362Z,19.7
2017-12-17T02:06:07.215Z,19.7
2017-12-17T02:08:05.549Z,19.8
2017-12-17T02:10:04.858Z,19.8
2017-12-17T02:12:04.720Z,19.7
2017-12-17T02:14:10.543Z,19.7
2017-12-17T02:16:05.279Z,19.8
2017-12-17T02:18:07.792Z,19.8
2017-12-17T02:20:05.163Z,19.7
2017-12-17T02:22:15.549Z,19.7
2017-12-17T02:24:05.337Z,19.7
2017-12-17T02:26:05.083Z,19.7
2017-12-17T02:28:04.843Z,19.7
2017-12-17T02:30:05.752Z,19.7
2017-12-17T02:32:08.028Z,19.7
2017-12-17T02:34:12.376Z,19.7
2017-12-17T02:36:05.244Z,19.8
2017-12-17T02:38:05.626Z,19.7
2017-12-17T02:40:08.099Z,19.7
2017-12-17T02:42:09.960Z,19.7
2017-12-17T02:44:04.765Z,19.7
2017-12-17T02:46:13.140Z,19.7
2017-12-17T02:48:04.884Z,19.7
2017-12-17T02:50:04.648Z,19.7
2017-12-17T02:52:05.581Z,19.7
2017-12-17T02:54:07.912Z,19.7
2017-12-17T02:56:04.659Z,19.6
2017-12-17T02:58:05.435Z,19.6
2017-12-17T03:00:10.351Z,19.6
2017-12-17T03:02:05.098Z,19.7
2017-12-17T03:04:04.886Z,19.6
2017-12-17T03:06:05.649Z,19.6
2017-12-17T03:08:05.477Z,19.6
2017-12-17T03:10:05.273Z,19.6
2017-12-17T03:12:05.135Z,19.6
2017-12-17T03:14:04.866Z,19.6
2017-12-17T03:16:05.614Z,19.6
2017-12-17T03:18:05.613Z,19.6
2017-12-17T03:20:05.393Z,19.6
2017-12-17T03:22:05.113Z,19.6
2017-12-17T03:24:10.025Z,19.6
2017-12-17T03:26:04.939Z,19.6
2017-12-17T03:28:04.736Z,19.6
2017-12-17T03:30:05.539Z,19.6
2017-12-17T03:32:04.898Z,19.6
2017-12-17T03:34:07.248Z,19.6
2017-12-17T03:36:05.528Z,19.5
2017-12-17T03:38:05.325Z,19.6
2017-12-17T03:40:10.647Z,19.5
2017-12-17T03:42:05.490Z,19.5
2017-12-17T03:44:05.312Z,19.6
2017-12-17T03:46:05.055Z,19.5
2017-12-17T03:48:04.783Z,19.5
2017-12-17T03:50:10.552Z,19.5
2017-12-17T03:52:04.799Z,19.5
2017-12-17T03:54:07.630Z,19.5
2017-12-17T03:56:05.568Z,19.5
2017-12-17T03:58:15.530Z,19.5
2017-12-17T04:00:05.290Z,19.5
2017-12-17T04:02:05.057Z,19.5
2017-12-17T04:04:09.891Z,19.5
2017-12-17T04:06:04.701Z,19.5
2017-12-17T04:08:08.167Z,19.5
2017-12-17T04:10:05.130Z,19.5
2017-12-17T04:12:07.412Z,19.5
2017-12-17T04:14:04.743Z,19.5
2017-12-17T04:16:05.488Z,19.5
2017-12-17T04:18:05.471Z,19.5
2017-12-17T04:20:07.765Z,19.5
2017-12-17T04:22:10.637Z,19.5
2017-12-17T04:24:05.419Z,19.5
2017-12-17T04:26:07.216Z,19.5
2017-12-17T04:28:05.523Z,19.4
2017-12-17T04:30:05.296Z,19.4
2017-12-17T04:32:05.546Z,19.4
2017-12-17T04:34:05.379Z,19.4
2017-12-17T04:36:05.254Z,19.4
2017-12-17T04:38:07.595Z,19.4
2017-12-17T04:40:05.392Z,19.4
2017-12-17T04:42:05.239Z,19.4
2017-12-17T04:44:05.093Z,19.4
2017-12-17T04:46:04.972Z,19.4
2017-12-17T04:48:04.747Z,19.4
2017-12-17T04:50:07.539Z,19.4
2017-12-17T04:52:05.266Z,19.4
2017-12-17T04:54:05.625Z,19.4
2017-12-17T04:56:05.459Z,19.4
2017-12-17T04:58:05.213Z,19.4
2017-12-17T05:00:05.005Z,19.4
2017-12-17T05:02:04.821Z,19.4
2017-12-17T05:04:05.577Z,19.4
2017-12-17T05:06:07.885Z,19.4
2017-12-17T05:08:05.191Z,19.4
2017-12-17T05:10:05.564Z,19.4
2017-12-17T05:12:05.413Z,19.5
2017-12-17T05:14:07.734Z,19.5
2017-12-17T05:16:05.480Z,19.5
2017-12-17T05:18:05.437Z,19.5
2017-12-17T05:20:07.882Z,19.5
2017-12-17T05:22:05.621Z,19.5
2017-12-17T05:24:05.431Z,19.5
2017-12-17T05:26:05.199Z,19.5
2017-12-17T05:28:04.986Z,19.5
2017-12-17T05:30:04.914Z,19.5
2017-12-17T05:32:07.266Z,19.5
2017-12-17T05:34:10.462Z,19.5
2017-12-17T05:36:05.212Z,19.5
2017-12-17T05:38:05.009Z,19.6
2017-12-17T05:40:05.243Z,19.6
2017-12-17T05:42:04.994Z,19.6
2017-12-17T05:44:04.919Z,19.6
2017-12-17T05:46:04.704Z,19.5
2017-12-17T05:48:05.538Z,19.6
2017-12-17T05:50:05.343Z,19.6
2017-12-17T05:52:05.108Z,19.6
2017-12-17T05:54:07.508Z,19.6
2017-12-17T05:56:07.327Z,19.5
2017-12-17T05:58:05.054Z,19.6
2017-12-17T06:00:05.359Z,19.5
2017-12-17T06:02:07.203Z,19.5
2017-12-17T06:04:05.034Z,19.6
2017-12-17T06:06:07.408Z,19.5
2017-12-17T06:08:05.159Z,19.6
2017-12-17T06:10:07.629Z,19.5
2017-12-17T06:12:05.361Z,19.5
2017-12-17T06:14:05.080Z,19.5
2017-12-17T06:16:04.818Z,19.6
2017-12-17T06:18:04.898Z,19.5
2017-12-17T06:20:04.651Z,19.6
2017-12-17T06:22:08.025Z,19.5
2017-12-17T06:24:05.298Z,19.6
2017-12-17T06:26:10.110Z,19.5
2017-12-17T06:28:05.403Z,19.5
2017-12-17T06:30:05.210Z,19.5
2017-12-17T06:32:04.975Z,19.6
2017-12-17T06:34:09.789Z,19.5
2017-12-17T06:36:05.721Z,19.5
2017-12-17T06:38:07.988Z,19.5
2017-12-17T06:40:04.763Z,19.5
2017-12-17T06:42:05.073Z,19.5
2017-12-17T06:44:09.910Z,19.5
2017-12-17T06:46:15.012Z,19.5
2017-12-17T06:48:07.918Z,19.5
2017-12-17T06:50:05.328Z,19.5
2017-12-17T06:52:05.109Z,19.5
2017-12-17T06:54:10.529Z,19.5
2017-12-17T06:56:05.507Z,19.5
2017-12-17T06:58:05.430Z,19.5
2017-12-17T07:00:05.197Z,19.5
2017-12-17T07:02:04.909Z,19.5
2017-12-17T07:04:04.678Z,19.5
2017-12-17T07:06:05.497Z,19.5
2017-12-17T07:08:05.253Z,19.5
2017-12-17T07:10:05.556Z,19.5
2017-12-17T07:12:05.433Z,19.5
2017-12-17T07:14:07.282Z,19.5
2017-12-17T07:16:07.554Z,19.5
2017-12-17T07:18:05.597Z,19.5
2017-12-17T07:20:07.866Z,19.5
2017-12-17T07:22:05.608Z,19.5
2017-12-17T07:24:04.857Z,19.5
2017-12-17T07:26:05.614Z,19.5
2017-12-17T07:28:05.368Z,19.5
2017-12-17T07:30:05.218Z,19.5
2017-12-17T07:32:04.945Z,19.5
2017-12-17T07:34:10.223Z,19.5
2017-12-17T07:36:05.076Z,19.5
2017-12-17T07:38:04.789Z,19.5
2017-12-17T07:40:05.567Z,19.5
2017-12-17T07:42:05.310Z,19.5
2017-12-17T07:44:05.032Z,19.5
2017-12-17T07:46:07.929Z,19.5
2017-12-17T07:48:04.785Z,19.5
2017-12-17T07:50:13.132Z,19.5
2017-12-17T07:52:04.865Z,19.5
2017-12-17T07:54:05.626Z,19.5
2017-12-17T07:56:05.518Z,19.5
2017-12-17T07:58:05.267Z,19.5
2017-12-17T08:00:05.033Z,19.5
2017-12-17T08:02:07.286Z,19.5
2017-12-17T08:04:05.567Z,19.5
2017-12-17T08:06:05.432Z,19.5
2017-12-17T08:08:04.793Z,19.5
2017-12-17T08:10:15.642Z,19.5
2017-12-17T08:12:05.469Z,19.5
2017-12-17T08:14:05.208Z,19.5
2017-12-17T08:16:04.981Z,19.5
2017-12-17T08:18:05.514Z,19.5
2017-12-17T08:20:04.793Z,19.4
2017-12-17T08:22:05.555Z,19.5
2017-12-17T08:24:05.363Z,19.5
2017-12-17T08:26:05.119Z,19.4
2017-12-17T08:28:04.966Z,19.4
2017-12-17T08:30:07.297Z,19.5
2017-12-17T08:32:07.600Z,19.4
2017-12-17T08:34:04.883Z,19.5
2017-12-17T08:36:08.169Z,19.4
2017-12-17T08:38:05.257Z,19.4
2017-12-17T08:40:07.565Z,19.5
2017-12-17T08:42:05.267Z,19.4
2017-12-17T08:44:05.033Z,19.5
2017-12-17T08:46:07.835Z,19.4
2017-12-17T08:48:05.606Z,19.5
2017-12-17T08:50:07.865Z,19.5
2017-12-17T08:52:07.672Z,19.5
2017-12-17T08:54:04.973Z,19.5
2017-12-17T08:56:07.375Z,19.5
2017-12-17T08:58:05.110Z,19.5
2017-12-17T09:00:04.885Z,19.5
2017-12-17T09:02:07.162Z,19.5
2017-12-17T09:04:05.572Z,19.5
2017-12-17T09:06:05.387Z,19.5
2017-12-17T09:08:05.123Z,19.5
2017-12-17T09:10:07.454Z,19.5
2017-12-17T09:12:05.250Z,19.5
2017-12-17T09:14:07.688Z,19.5
2017-12-17T09:16:10.164Z,19.5
2017-12-17T09:18:04.654Z,19.5
2017-12-17T09:20:08.023Z,19.5
2017-12-17T09:22:07.866Z,19.5
2017-12-17T09:24:04.810Z,19.5
2017-12-17T09:26:05.543Z,19.5
2017-12-17T09:28:09.891Z,19.5
2017-12-17T09:30:05.164Z,19.5
2017-12-17T09:32:05.452Z,19.5
2017-12-17T09:34:05.221Z,19.5
2017-12-17T09:36:05.316Z,19.5
2017-12-17T09:38:05.069Z,19.5
2017-12-17T09:40:07.452Z,19.5
2017-12-17T09:42:10.337Z,19.5
2017-12-17T09:44:07.679Z,19.5
2017-12-17T09:46:07.560Z,19.5
2017-12-17T09:48:07.878Z,19.5
2017-12-17T09:50:07.650Z,19.5
2017-12-17T09:52:05.370Z,19.5
2017-12-17T09:54:05.184Z,19.5
2017-12-17T09:56:17.643Z,19.5
2017-12-17T09:58:05.445Z,19.5
2017-12-17T10:00:05.187Z,19.5
2017-12-17T10:02:05.454Z,19.5
2017-12-17T10:04:07.749Z,19.5
2017-12-17T10:06:05.532Z,19.5
2017-12-17T10:08:05.236Z,19.5
2017-12-17T10:10:05.004Z,19.5
2017-12-17T10:12:07.286Z,19.5
2017-12-17T10:14:07.553Z,19.4
2017-12-17T10:16:05.342Z,19.5
2017-12-17T10:18:07.426Z,19.4
2017-12-17T10:20:07.802Z,19.4
2017-12-17T10:22:05.594Z,19.4
2017-12-17T10:24:05.510Z,19.4
2017-12-17T10:26:07.391Z,19.4
2017-12-17T10:28:07.648Z,19.5
2017-12-17T10:30:04.909Z,19.5
2017-12-17T10:32:04.694Z,19.5
2017-12-17T10:34:05.457Z,19.4
2017-12-17T10:36:07.780Z,19.4
2017-12-17T10:38:05.610Z,19.4
2017-12-17T10:40:05.390Z,19.4
2017-12-17T10:42:05.325Z,19.4
2017-12-17T10:44:04.694Z,19.4
2017-12-17T10:46:05.554Z,19.4
2017-12-17T10:48:05.326Z,19.4
2017-12-17T10:50:05.067Z,19.4
2017-12-17T10:52:04.891Z,19.4
2017-12-17T10:54:07.291Z,19.4
2017-12-17T10:56:07.633Z,19.4
2017-12-17T10:58:07.498Z,19.4
2017-12-17T11:00:05.378Z,19.4
2017-12-17T11:02:07.648Z,19.4
2017-12-17T11:04:07.931Z,19.4
2017-12-17T11:06:05.382Z,19.4
2017-12-17T11:08:05.214Z,19.4
2017-12-17T11:10:05.075Z,19.4
2017-12-17T11:12:05.418Z,19.5
2017-12-17T11:14:05.172Z,19.5
2017-12-17T11:16:04.972Z,19.4
2017-12-17T11:18:04.947Z,19.4
2017-12-17T11:20:04.797Z,19.4
2017-12-17T11:22:08.139Z,19.5
2017-12-17T11:24:04.904Z,19.4
2017-12-17T11:26:04.633Z,19.5
2017-12-17T11:28:04.947Z,19.5
2017-12-17T11:30:04.718Z,19.5
2017-12-17T11:32:05.442Z,19.5
2017-12-17T11:34:10.278Z,19.5
2017-12-17T11:36:05.180Z,19.4
2017-12-17T11:38:04.911Z,19.5
2017-12-17T11:40:04.766Z,19.5
2017-12-17T11:42:05.603Z,19.5
2017-12-17T11:44:07.480Z,19.5
2017-12-17T11:46:10.353Z,19.5
2017-12-17T11:48:10.234Z,19.4
2017-12-17T11:50:05.030Z,19.5
2017-12-17T11:52:09.894Z,19.5
2017-12-17T11:54:04.703Z,19.5
2017-12-17T11:56:05.601Z,19.5
2017-12-17T11:58:07.980Z,19.5
2017-12-17T12:00:04.788Z,19.5
2017-12-17T12:02:05.614Z,19.5
2017-12-17T12:04:05.397Z,19.5
2017-12-17T12:06:05.122Z,19.5
2017-12-17T12:08:04.838Z,19.5
2017-12-17T12:10:08.152Z,19.5
2017-12-17T12:12:07.503Z,19.5
2017-12-17T12:14:04.785Z,19.5
2017-12-17T12:16:05.619Z,19.5
2017-12-17T12:18:05.578Z,19.5
2017-12-17T12:20:05.342Z,19.5
2017-12-17T12:22:10.151Z,19.5
2017-12-17T12:24:05.479Z,19.5
2017-12-17T12:26:05.341Z,19.5
2017-12-17T12:28:05.148Z,19.5
2017-12-17T12:30:04.958Z,19.4
2017-12-17T12:32:04.794Z,19.4
2017-12-17T12:34:08.084Z,19.4
2017-12-17T12:36:04.975Z,19.4
2017-12-17T12:38:07.259Z,19.4
2017-12-17T12:40:05.025Z,19.4
2017-12-17T12:42:04.805Z,19.4
2017-12-17T12:44:08.144Z,19.4
2017-12-17T12:46:04.910Z,19.4
2017-12-17T12:48:04.679Z,19.4
2017-12-17T12:50:04.966Z,19.4
2017-12-17T12:52:07.253Z,19.4
2017-12-17T12:54:05.555Z,19.4
2017-12-17T12:56:05.337Z,19.4
2017-12-17T12:58:07.678Z,19.4
2017-12-17T13:00:05.395Z,19.4
2017-12-17T13:02:05.165Z,19.4
2017-12-17T13:04:04.932Z,19.4
2017-12-17T13:06:12.298Z,19.4
2017-12-17T13:08:07.663Z,19.4
2017-12-17T13:10:05.486Z,19.4
2017-12-17T13:12:04.802Z,19.4
2017-12-17T13:14:05.601Z,19.4
2017-12-17T13:16:05.566Z,19.4
2017-12-17T13:18:05.498Z,19.4
2017-12-17T13:20:05.264Z,19.4
2017-12-17T13:22:05.083Z,19.4
2017-12-17T13:24:04.971Z,19.4
2017-12-17T13:26:05.334Z,19.4
2017-12-17T13:28:09.715Z,19.4
2017-12-17T13:30:08.023Z,19.4
2017-12-17T13:32:04.830Z,19.5
2017-12-17T13:34:12.699Z,19.5
2017-12-17T13:36:05.517Z,19.4
2017-12-17T13:38:05.234Z,19.5
2017-12-17T13:40:04.998Z,19.5
2017-12-17T13:42:05.824Z,19.5
2017-12-17T13:44:05.588Z,19.5
2017-12-17T13:46:07.910Z,19.5
2017-12-17T13:48:05.180Z,19.4
2017-12-17T13:50:08.060Z,19.5
2017-12-17T13:52:04.878Z,19.5
2017-12-17T13:54:05.153Z,19.5
2017-12-17T13:56:04.935Z,19.5
2017-12-17T13:58:04.750Z,19.5
2017-12-17T14:00:05.597Z,19.5
2017-12-17T14:02:10.404Z,19.5
2017-12-17T14:04:07.947Z,19.5
2017-12-17T14:06:07.261Z,19.5
2017-12-17T14:08:05.565Z,19.5
2017-12-17T14:10:05.368Z,19.5
2017-12-17T14:12:05.118Z,19.5
2017-12-17T14:14:04.899Z,19.5
2017-12-17T14:16:05.757Z,19.5
2017-12-17T14:18:07.256Z,19.5
2017-12-17T14:20:07.750Z,19.5
2017-12-17T14:22:05.547Z,19.5
2017-12-17T14:24:07.795Z,19.5
2017-12-17T14:26:05.211Z,19.5
2017-12-17T14:28:04.969Z,19.5
2017-12-17T14:30:04.710Z,19.5
2017-12-17T14:32:04.944Z,19.5
2017-12-17T14:34:04.765Z,19.5
2017-12-17T14:36:07.293Z,19.5
2017-12-17T14:38:04.685Z,19.5
2017-12-17T14:40:08.081Z,19.5
2017-12-17T14:42:04.911Z,19.4
2017-12-17T14:44:04.774Z,19.4
2017-12-17T14:46:05.585Z,19.5
2017-12-17T14:48:04.617Z,19.5
2017-12-17T14:50:07.908Z,19.5
2017-12-17T14:52:04.644Z,19.5
2017-12-17T14:54:05.373Z,19.5
2017-12-17T14:56:04.719Z,19.5
2017-12-17T14:58:08.046Z,19.4
2017-12-17T15:00:05.484Z,19.4
2017-12-17T15:02:05.225Z,19.4
2017-12-17T15:04:04.994Z,19.5
2017-12-17T15:06:04.776Z,19.4
2017-12-17T15:08:05.498Z,19.4
2017-12-17T15:10:05.302Z,19.4
2017-12-17T15:12:05.540Z,19.4
2017-12-17T15:14:05.268Z,19.4
2017-12-17T15:16:05.033Z,19.4
2017-12-17T15:18:05.559Z,19.4
2017-12-17T15:20:07.850Z,19.4
2017-12-17T15:22:05.700Z,19.4
2017-12-17T15:24:05.504Z,19.4
2017-12-17T15:26:04.805Z,19.4
2017-12-17T15:28:10.620Z,19.4
2017-12-17T15:30:04.999Z,19.4
2017-12-17T15:32:04.771Z,19.4
2017-12-17T15:34:05.567Z,19.4
2017-12-17T15:36:04.865Z,19.4
2017-12-17T15:38:07.264Z,19.4
2017-12-17T15:40:05.263Z,19.4
2017-12-17T15:42:10.062Z,19.4
2017-12-17T15:44:07.882Z,19.4
2017-12-17T15:46:05.649Z,19.4
2017-12-17T15:48:08.012Z,19.4
2017-12-17T15:50:04.745Z,19.4
2017-12-17T15:52:04.819Z,19.4
2017-12-17T15:54:05.634Z,19.5
2017-12-17T15:56:05.519Z,19.5
2017-12-17T15:58:05.395Z,19.5
2017-12-17T16:00:07.681Z,19.4
2017-12-17T16:02:04.953Z,19.4
2017-12-17T16:04:04.665Z,19.4
2017-12-17T16:06:13.003Z,19.4
2017-12-17T16:08:04.823Z,19.4
2017-12-17T16:10:05.572Z,19.4
2017-12-17T16:12:05.348Z,19.5
2017-12-17T16:14:05.127Z,19.5
2017-12-17T16:16:05.008Z,19.5
2017-12-17T16:18:05.036Z,19.5
2017-12-17T16:20:07.366Z,19.5
2017-12-17T16:22:07.775Z,19.5
2017-12-17T16:24:05.060Z,19.5
2017-12-17T16:26:04.838Z,19.5
2017-12-17T16:28:05.190Z,19.5
2017-12-17T16:30:05.062Z,19.5
2017-12-17T16:32:13.143Z,19.5
2017-12-17T16:34:04.964Z,19.5
2017-12-17T16:36:05.016Z,19.5
2017-12-17T16:38:04.996Z,19.6
2017-12-17T16:40:10.003Z,19.6
2017-12-17T16:42:05.119Z,19.6
2017-12-17T16:44:04.888Z,19.5
2017-12-17T16:46:05.523Z,19.5
2017-12-17T16:48:07.840Z,19.4
2017-12-17T16:50:04.832Z,19.4
2017-12-17T16:52:09.718Z,19.3
2017-12-17T16:54:07.236Z,19.3
2017-12-17T16:56:10.065Z,19.3
2017-12-17T16:58:10.789Z,19.3
2017-12-17T17:00:17.809Z,19.4
2017-12-17T17:02:04.931Z,19.4
2017-12-17T17:04:06.015Z,19.4
2017-12-17T17:06:05.334Z,19.5
2017-12-17T17:08:05.084Z,19.4
2017-12-17T17:10:04.916Z,19.3
2017-12-17T17:12:21.785Z,19.2
2017-12-17T17:14:05.947Z,19.3
2017-12-17T17:16:05.702Z,19.2
2017-12-17T17:18:07.218Z,19.2
2017-12-17T17:20:05.542Z,19.2
2017-12-17T17:22:05.301Z,19.3
2017-12-17T17:24:05.071Z,19.4
2017-12-17T17:26:05.146Z,19.4
2017-12-17T17:28:04.989Z,19.4
2017-12-17T17:30:04.786Z,19.4
2017-12-17T17:32:08.149Z,19.4
2017-12-17T17:34:07.730Z,19.5
2017-12-17T17:36:05.513Z,19.5
2017-12-17T17:38:04.776Z,19.6
2017-12-17T17:40:05.569Z,19.6
2017-12-17T17:42:05.337Z,19.6
2017-12-17T17:44:07.671Z,19.8
2017-12-17T17:46:05.463Z,19.8
2017-12-17T17:48:07.873Z,19.8
2017-12-17T17:50:05.718Z,19.8
2017-12-17T17:52:05.077Z,19.8
2017-12-17T17:54:07.426Z,19.8
2017-12-17T17:56:05.454Z,19.9
2017-12-17T17:58:07.353Z,19.9
2017-12-17T18:00:05.158Z,19.8
2017-12-17T18:02:05.150Z,19.9
2017-12-17T18:04:05.051Z,19.9
2017-12-17T18:06:04.780Z,19.9
2017-12-17T18:08:15.193Z,19.8
2017-12-17T18:10:07.546Z,19.9
2017-12-17T18:12:05.600Z,19.9
2017-12-17T18:14:05.359Z,19.8
2017-12-17T18:16:05.125Z,19.8
2017-12-17T18:18:07.637Z,19.8
2017-12-17T18:20:05.012Z,19.9
2017-12-17T18:22:07.363Z,19.8
2017-12-17T18:24:05.108Z,19.9
2017-12-17T18:26:04.884Z,19.8
2017-12-17T18:28:04.630Z,19.9
2017-12-17T18:30:04.873Z,19.9
2017-12-17T18:32:05.156Z,19.9
2017-12-17T18:34:12.559Z,19.9
2017-12-17T18:36:10.674Z,20
2017-12-17T18:38:05.432Z,20
2017-12-17T18:40:05.722Z,20
2017-12-17T18:42:05.593Z,20
2017-12-17T18:44:07.868Z,20
2017-12-17T18:46:04.636Z,20
2017-12-17T18:48:04.632Z,20.1
2017-12-17T18:50:04.909Z,20.1
2017-12-17T18:52:04.792Z,20.1
2017-12-17T18:54:04.754Z,20.1
2017-12-17T18:56:05.037Z,20.1
2017-12-17T18:58:09.834Z,20.2
2017-12-17T19:00:05.105Z,20.1
2017-12-17T19:02:07.390Z,20.1
2017-12-17T19:04:09.820Z,20.1
2017-12-17T19:06:04.791Z,20.1
2017-12-17T19:08:05.596Z,20.2
2017-12-17T19:10:04.908Z,20.1
2017-12-17T19:12:09.662Z,20.1
2017-12-17T19:14:07.972Z,20.2
2017-12-17T19:16:05.264Z,20.2
2017-12-17T19:18:05.246Z,20.1
2017-12-17T19:20:07.600Z,20.2
2017-12-17T19:22:07.447Z,20.2
2017-12-17T19:24:05.279Z,20.2
2017-12-17T19:26:05.023Z,20.2
2017-12-17T19:28:07.495Z,20.2
2017-12-17T19:30:05.585Z,20.2
2017-12-17T19:32:05.355Z,20.2
2017-12-17T19:34:05.253Z,20.2
2017-12-17T19:36:05.132Z,20.3
2017-12-17T19:38:07.410Z,20.3
2017-12-17T19:40:07.761Z,20.3
2017-12-17T19:42:05.039Z,20.3
2017-12-17T19:44:04.904Z,20.3
2017-12-17T19:46:04.721Z,20.4
2017-12-17T19:48:05.516Z,20.4
2017-12-17T19:50:05.344Z,20.4
2017-12-17T19:52:05.219Z,20.5
2017-12-17T19:54:05.504Z,20.5
2017-12-17T19:56:05.340Z,20.5
2017-12-17T19:58:04.880Z,20.5
2017-12-17T20:00:05.141Z,20.5
2017-12-17T20:02:04.964Z,20.5
2017-12-17T20:04:04.719Z,20.5
2017-12-17T20:06:06.583Z,20.5
2017-12-17T20:08:10.404Z,20.4
2017-12-17T20:10:05.292Z,20.4
2017-12-17T20:12:05.272Z,20.4
2017-12-17T20:14:05.125Z,20.5
2017-12-17T20:16:04.623Z,20.5
2017-12-17T20:18:05.623Z,20.5
2017-12-17T20:20:05.475Z,20.5
2017-12-17T20:22:05.241Z,20.4
2017-12-17T20:24:07.750Z,20.4
2017-12-17T20:26:05.341Z,20.4
2017-12-17T20:28:05.213Z,20.4
2017-12-17T20:30:05.534Z,20.4
2017-12-17T20:32:05.337Z,20.4
2017-12-17T20:34:05.610Z,20.4
2017-12-17T20:36:07.395Z,20.4
2017-12-17T20:38:05.380Z,20.4
2017-12-17T20:40:05.300Z,20.4
2017-12-17T20:42:05.542Z,20.4
2017-12-17T20:44:05.362Z,20.4
2017-12-17T20:46:05.075Z,20.4
2017-12-17T20:48:04.880Z,20.5
2017-12-17T20:50:13.266Z,20.5
2017-12-17T20:52:12.606Z,20.5
2017-12-17T20:54:05.383Z,20.5
2017-12-17T20:56:05.311Z,20.5
2017-12-17T20:58:13.207Z,20.5
2017-12-17T21:00:07.501Z,20.5
2017-12-17T21:02:04.707Z,20.4
2017-12-17T21:04:05.519Z,20.4
2017-12-17T21:06:07.992Z,20.5
2017-12-17T21:08:04.765Z,20.4
2017-12-17T21:10:05.579Z,20.5
2017-12-17T21:12:07.891Z,20.4
2017-12-17T21:14:04.705Z,20.4
2017-12-17T21:16:05.525Z,20.4
2017-12-17T21:18:05.447Z,20.4
2017-12-17T21:20:05.274Z,20.4
2017-12-17T21:22:07.534Z,20.4
2017-12-17T21:24:05.321Z,20.4
2017-12-17T21:26:05.182Z,20.4
2017-12-17T21:28:05.489Z,20.4
2017-12-17T21:30:05.202Z,20.4
2017-12-17T21:32:05.034Z,20.4
2017-12-17T21:34:04.996Z,20.4
2017-12-17T21:36:04.737Z,20.4
2017-12-17T21:38:05.527Z,20.4
2017-12-17T21:40:05.282Z,20.4
2017-12-17T21:42:07.556Z,20.5
2017-12-17T21:44:05.379Z,20.5
2017-12-17T21:46:04.873Z,20.6
2017-12-17T21:48:05.708Z,20.6
2017-12-17T21:50:10.538Z,20.6
2017-12-17T21:52:05.276Z,20.6
2017-12-17T21:54:07.596Z,20.6
2017-12-17T21:56:08.009Z,20.6
2017-12-17T21:58:05.278Z,20.6
2017-12-17T22:00:05.012Z,20.6
2017-12-17T22:02:04.920Z,20.6
2017-12-17T22:04:04.709Z,20.6
2017-12-17T22:06:05.463Z,20.7
2017-12-17T22:08:05.271Z,20.7
2017-12-17T22:10:05.069Z,20.7
2017-12-17T22:12:04.783Z,20.6
2017-12-17T22:14:07.614Z,20.7
2017-12-17T22:16:05.424Z,20.7
2017-12-17T22:18:07.970Z,20.7
2017-12-17T22:20:07.866Z,20.7
2017-12-17T22:22:05.211Z,20.7
2017-12-17T22:24:07.502Z,20.7
2017-12-17T22:26:05.284Z,20.7
2017-12-17T22:28:10.064Z,20.7
2017-12-17T22:30:04.867Z,20.7
2017-12-17T22:32:05.676Z,20.7
2017-12-17T22:34:05.475Z,20.7
2017-12-17T22:36:05.237Z,20.7
2017-12-17T22:38:07.623Z,20.6
2017-12-17T22:40:05.445Z,20.7
2017-12-17T22:42:04.834Z,20.7
2017-12-17T22:44:05.587Z,20.7
2017-12-17T22:46:05.318Z,20.7
2017-12-17T22:48:05.069Z,20.7
2017-12-17T22:50:05.488Z,20.7
2017-12-17T22:52:05.347Z,20.6
2017-12-17T22:54:04.700Z,20.6
2017-12-17T22:56:04.680Z,20.6
2017-12-17T22:58:05.465Z,20.7
2017-12-17T23:00:05.202Z,20.6
2017-12-17T23:02:04.966Z,20.7
2017-12-17T23:04:04.735Z,20.7
2017-12-17T23:06:12.651Z,20.6
2017-12-17T23:08:05.504Z,20.6
2017-12-17T23:10:05.465Z,20.6
2017-12-17T23:12:05.215Z,20.6
2017-12-17T23:14:04.977Z,20.7
2017-12-17T23:16:04.743Z,20.7
2017-12-17T23:18:04.689Z,20.7
2017-12-17T23:20:05.516Z,20.6
2017-12-17T23:22:07.788Z,20.7
2017-12-17T23:24:05.584Z,20.7
2017-12-17T23:26:05.309Z,20.6
2017-12-17T23:28:22.799Z,20.6
2017-12-17T23:30:08.090Z,20.6
2017-12-17T23:32:12.478Z,20.6
2017-12-17T23:34:05.185Z,20.6
2017-12-17T23:36:04.908Z,20.6
2017-12-17T23:38:04.722Z,20.6
2017-12-17T23:40:05.475Z,20.6
2017-12-17T23:42:10.261Z,20.6
2017-12-17T23:44:10.313Z,20.6
2017-12-17T23:46:05.053Z,20.6
2017-12-17T23:48:05.535Z,20.6
2017-12-17T23:50:07.895Z,20.6
2017-12-17T23:52:04.684Z,20.6
2017-12-17T23:54:05.440Z,20.6
2017-12-17T23:56:05.253Z,20.6
2017-12-17T23:58:05.024Z,20.6
